Time;durP1;ratioP1;P1;durP2;ratioP2;P2;SDS_P1;SDS_P2;PMS_P1;PMS_P2;Temp;Humidity;BMP_temperature;BMP_pressure;BME280_temperature;BME280_humidity;BME280_pressure;Samples;Min_cycle;Max_cycle;Signal;HPM_P1;HPM_P2
2022/10/03 00:01:10;;;;;;;;;;;16.80;62.00;;;;;;5110239;27;19912;-66
2022/10/03 00:03:44;;;;;;;;;;;16.90;62.10;;;;;;5108774;28;19931;-66
2022/10/03 00:06:13;;;;;;;;;;;17.00;61.80;;;;;;5108803;28;20463;-66
2022/10/03 00:11:31;;;;;;;;;;;18.30;59.20;;;;;;5089893;28;19919;-66
2022/10/03 00:17:13;;;;;;;;;;;19.70;55.80;;;;;;5089908;28;19912;-66
2022/10/03 00:19:47;;;;;;;;;;;20.80;53.70;;;;;;5105438;28;19963;-66
2022/10/03 00:22:17;;;;;;;;;;;21.60;51.50;;;;;;5088895;28;19927;-66
2022/10/03 00:27:45;;;;;;;;;;;23.00;48.80;;;;;;5089921;28;19912;-66
2022/10/03 00:30:15;;;;;;;;;;;23.50;47.70;;;;;;5090028;28;20330;-67
2022/10/03 00:43:54;;;;;;;;;;;25.00;44.70;;;;;;5110329;27;19913;-66
2022/10/03 00:46:38;;;;;;;;;;;25.20;44.30;;;;;;5092240;28;19967;-66
2022/10/03 00:49:24;;;;;;;;;;;25.40;44.20;;;;;;5091957;28;20376;-66
2022/10/03 00:54:36;;;;;;;;;;;25.70;43.70;;;;;;5090051;28;19912;-66
2022/10/03 01:00:06;;;;;;;;;;;25.90;43.10;;;;;;5089978;28;19919;-66
2022/10/03 01:08:19;;;;;;;;;;;26.20;42.50;;;;;;5089886;28;19913;-67
2022/10/03 01:11:05;;;;;;;;;;;26.30;42.40;;;;;;5105358;28;19930;-66
2022/10/03 01:16:19;;;;;;;;;;;26.50;42.30;;;;;;5089994;28;19912;-67
2022/10/03 01:21:39;;;;;;;;;;;26.60;42.00;;;;;;5090142;28;19919;-68
2022/10/03 01:27:05;;;;;;;;;;;26.70;41.70;;;;;;5089934;28;20364;-67
2022/10/03 01:35:14;;;;;;;;;;;26.50;41.90;;;;;;5089992;28;19912;-67
2022/10/03 01:40:22;;;;;;;;;;;26.10;42.40;;;;;;5127491;27;1865718;-66
2022/10/03 01:48:30;;;;;;;;;;;25.90;42.90;;;;;;5110185;27;19912;-67
2022/10/03 01:51:01;;;;;;;;;;;26.10;42.70;;;;;;5109256;28;19927;-67
2022/10/03 01:53:46;;;;;;;;;;;26.20;42.50;;;;;;5108871;28;19924;-67
2022/10/03 01:56:33;;;;;;;;;;;26.30;42.10;;;;;;5108738;28;20377;-67
2022/10/03 02:07:11;;;;;;;;;;;26.70;41.50;;;;;;5089985;28;19912;-66
2022/10/03 02:09:56;;;;;;;;;;;26.70;41.40;;;;;;5089863;28;20007;-67
2022/10/03 02:20:53;;;;;;;;;;;26.40;41.70;;;;;;5110279;27;19916;-66
2022/10/03 02:23:23;;;;;;;;;;;26.30;41.80;;;;;;5092015;28;19978;-67
2022/10/03 02:25:52;;;;;;;;;;;26.30;41.90;;;;;;5092163;28;19931;-66
2022/10/03 02:28:38;;;;;;;;;;;26.30;42.00;;;;;;5091855;28;19931;-67
2022/10/03 02:34:03;;;;;;;;;;;26.20;42.00;;;;;;5110347;27;19912;-67
2022/10/03 02:44:58;;;;;;;;;;;26.10;42.00;;;;;;5090083;27;19916;-66
2022/10/03 02:47:36;;;;;;;;;;;26.10;42.10;;;;;;5088455;28;19948;-66
2022/10/03 02:58:55;;;;;;;;;;;26.30;41.90;;;;;;5089936;28;20295;-67
2022/10/03 03:01:41;;;;;;;;;;;26.30;41.80;;;;;;5088708;28;19968;-67
2022/10/03 03:04:20;;;;;;;;;;;26.30;41.80;;;;;;5089578;28;20320;-66
2022/10/03 03:12:15;;;;;;;;;;;26.20;41.80;;;;;;5089940;28;19913;-66
2022/10/03 03:15:00;;;;;;;;;;;26.30;41.80;;;;;;5088701;28;19920;-68
2022/10/03 03:17:32;;;;;;;;;;;26.20;41.80;;;;;;5088539;28;19920;-67
2022/10/03 03:22:48;;;;;;;;;;;26.20;41.80;;;;;;5089976;28;19913;-67
2022/10/03 03:25:26;;;;;;;;;;;26.20;41.70;;;;;;5088935;28;19974;-67
2022/10/03 03:28:12;;;;;;;;;;;26.20;41.80;;;;;;5089822;28;19982;-67
2022/10/03 03:30:42;;;;;;;;;;;26.10;41.80;;;;;;5088827;28;19920;-68
2022/10/03 03:33:15;;;;;;;;;;;26.10;41.90;;;;;;5088709;28;19927;-66
2022/10/03 03:38:43;;;;;;;;;;;26.10;41.90;;;;;;5089940;28;19919;-67
2022/10/03 03:41:29;;;;;;;;;;;26.10;41.80;;;;;;5088611;28;19967;-66
2022/10/03 03:46:44;;;;;;;;;;;26.00;41.80;;;;;;5089895;28;19918;-67
2022/10/03 03:52:18;;;;;;;;;;;26.00;41.90;;;;;;5110304;27;19913;-67
2022/10/03 04:00:30;;;;;;;;;;;26.00;41.90;;;;;;5110340;27;19933;-67
2022/10/03 04:03:02;;;;;;;;;;;26.00;41.90;;;;;;5108904;28;19920;-67
2022/10/03 04:08:28;;;;;;;;;;;26.00;41.90;;;;;;5089963;28;19919;-66
2022/10/03 04:13:52;;;;;;;;;;;26.00;41.90;;;;;;5127622;27;1866340;-67
2022/10/03 04:19:02;;;;;;;;;;;26.00;41.90;;;;;;5110288;27;19919;-67
2022/10/03 04:21:49;;;;;;;;;;;26.00;41.90;;;;;;5092268;28;20014;-66
2022/10/03 04:24:23;;;;;;;;;;;25.90;41.90;;;;;;5091699;28;20375;-67
2022/10/03 04:29:52;;;;;;;;;;;25.90;41.90;;;;;;5089927;28;19918;-67
2022/10/03 04:32:38;;;;;;;;;;;25.90;42.00;;;;;;5088458;28;19920;-67
2022/10/03 04:35:11;;;;;;;;;;;25.90;42.00;;;;;;5088308;28;19927;-67
2022/10/03 04:37:40;;;;;;;;;;;25.90;42.00;;;;;;5088832;28;19952;-67
2022/10/03 04:45:47;;;;;;;;;;;25.80;42.00;;;;;;5110249;27;19912;-67
2022/10/03 04:48:27;;;;;;;;;;;25.80;42.00;;;;;;5110139;28;19924;-66
2022/10/03 04:53:55;;;;;;;;;;;25.80;42.10;;;;;;5089964;28;19913;-67
2022/10/03 04:59:07;;;;;;;;;;;25.80;42.00;;;;;;5090186;28;19912;-67
2022/10/03 05:01:39;;;;;;;;;;;25.80;42.00;;;;;;5088997;28;19921;-67
2022/10/03 05:04:14;;;;;;;;;;;25.70;42.00;;;;;;5088519;28;19967;-67
2022/10/03 05:06:47;;;;;;;;;;;25.70;42.00;;;;;;5088841;28;20020;-67
2022/10/03 05:09:33;;;;;;;;;;;25.70;42.10;;;;;;5088489;28;19920;-67
2022/10/03 05:12:05;;;;;;;;;;;25.70;42.10;;;;;;5087832;28;19928;-67
2022/10/03 05:22:45;;;;;;;;;;;24.70;43.50;;;;;;5087288;28;19919;-67
2022/10/03 05:28:14;;;;;;;;;;;23.90;44.90;;;;;;5108710;27;20397;-67
2022/10/03 05:30:43;;;;;;;;;;;23.70;45.50;;;;;;5107357;28;19924;-68
2022/10/03 05:33:29;;;;;;;;;;;23.60;46.00;;;;;;5108915;28;19920;-67
2022/10/03 05:36:06;;;;;;;;;;;23.50;46.40;;;;;;5136459;27;20045;-67
2022/10/03 05:38:48;;;;;;;;;;;23.40;46.50;;;;;;5105373;28;19946;-66
2022/10/03 05:49:41;;;;;;;;;;;23.50;46.20;;;;;;5106370;27;19916;-66
2022/10/03 05:52:27;;;;;;;;;;;23.40;46.50;;;;;;5090505;28;19966;-66
2022/10/03 05:55:00;;;;;;;;;;;23.20;46.80;;;;;;5091354;28;19924;-67
2022/10/03 06:00:14;;;;;;;;;;;23.00;47.30;;;;;;5094010;27;19926;-66
2022/10/03 06:02:51;;;;;;;;;;;22.90;47.50;;;;;;5094313;28;20431;-68
2022/10/03 06:05:36;;;;;;;;;;;22.60;47.40;;;;;;5095369;28;19927;-68
2022/10/03 06:08:22;;;;;;;;;;;22.50;47.70;;;;;;5082573;28;19927;-68
2022/10/03 06:10:52;;;;;;;;;;;22.30;48.80;;;;;;5096413;28;20141;-69
2022/10/03 06:13:37;;;;;;;;;;;22.20;48.40;;;;;;5135322;27;19924;-68
2022/10/03 06:16:12;;;;;;;;;;;22.10;48.50;;;;;;5085775;28;19962;-68
2022/10/03 06:18:58;;;;;;;;;;;22.00;48.80;;;;;;5075332;28;19929;-69
2022/10/03 06:21:43;;;;;;;;;;;21.90;49.00;;;;;;5114835;27;19921;-68
2022/10/03 06:27:07;;;;;;;;;;;21.60;49.50;;;;;;5082380;28;20418;-67
2022/10/03 06:29:43;;;;;;;;;;;21.50;49.60;;;;;;5065470;28;19924;-68
2022/10/03 06:32:29;;;;;;;;;;;21.50;50.00;;;;;;5064857;28;19920;-68
2022/10/03 06:37:55;;;;;;;;;;;21.30;50.40;;;;;;5073663;27;19954;-67
2022/10/03 06:40:41;;;;;;;;;;;21.20;50.70;;;;;;5051689;28;20442;-68
2022/10/03 06:43:29;;;;;;;;;;;21.10;50.70;;;;;;5052912;28;19932;-68
2022/10/03 06:46:08;;;;;;;;;;;21.00;51.00;;;;;;5056530;28;19925;-68
2022/10/03 06:54:45;;;;;;;;;;;20.80;51.50;;;;;;5089079;27;19924;-67
2022/10/03 06:57:25;;;;;;;;;;;20.70;51.80;;;;;;5087070;28;19966;-66
2022/10/03 07:00:11;;;;;;;;;;;20.70;52.00;;;;;;5078789;28;19935;-65
2022/10/03 07:05:44;;;;;;;;;;;20.50;52.40;;;;;;5047770;28;19925;-64
2022/10/03 07:08:30;;;;;;;;;;;20.50;52.70;;;;;;5024724;28;20007;-64
2022/10/03 07:16:42;;;;;;;;;;;20.40;53.80;;;;;;5048464;28;20559;-65
2022/10/03 07:27:52;;;;;;;;;;;20.30;55.00;;;;;;5063331;28;19957;-67
2022/10/03 07:30:20;;;;;;;;;;;20.40;54.60;;;;;;5071061;28;19932;-64
2022/10/03 07:33:05;;;;;;;;;;;20.30;55.40;;;;;;5061137;28;19943;-64
2022/10/03 07:41:17;;;;;;;;;;;20.30;55.80;;;;;;5067711;28;19921;-65
2022/10/03 07:43:48;;;;;;;;;;;20.20;56.30;;;;;;5070870;28;19930;-67
2022/10/03 07:57:02;;;;;;;;;;;20.20;57.30;;;;;;5075737;27;19923;-67
2022/10/03 07:59:49;;;;;;;;;;;20.20;57.50;;;;;;5074613;28;19928;-68
2022/10/03 08:05:23;;;;;;;;;;;20.20;57.60;;;;;;5076907;27;19924;-66
2022/10/03 08:08:09;;;;;;;;;;;20.20;57.70;;;;;;5071228;28;20711;-65
2022/10/03 08:13:40;;;;;;;;;;;20.20;57.40;;;;;;5086255;27;19944;-65
2022/10/03 08:27:05;;;;;;;;;;;20.10;58.50;;;;;;5056142;28;19925;-66
2022/10/03 08:32:38;;;;;;;;;;;20.20;58.90;;;;;;5066225;28;19927;-69
2022/10/03 08:35:23;;;;;;;;;;;20.20;59.00;;;;;;5068439;28;20416;-65
2022/10/03 08:43:33;;;;;;;;;;;20.40;59.40;;;;;;5061047;28;19929;-66
2022/10/03 09:02:52;;;;;;;;;;;20.30;59.70;;;;;;5063340;27;19916;-68
2022/10/03 09:05:38;;;;;;;;;;;20.20;59.80;;;;;;5049638;28;19925;-69
2022/10/03 09:10:55;;;;;;;;;;;20.10;59.60;;;;;;5066267;28;20436;-69
2022/10/03 09:16:21;;;;;;;;;;;20.10;59.60;;;;;;5087511;27;19952;-69
2022/10/03 09:18:54;;;;;;;;;;;20.10;59.50;;;;;;5074018;28;19928;-72
2022/10/03 09:21:39;;;;;;;;;;;20.10;59.80;;;;;;5070039;28;19991;-69
2022/10/03 09:24:24;;;;;;;;;;;20.10;59.70;;;;;;5075330;28;19924;-68
2022/10/03 09:29:54;;;;;;;;;;;20.10;59.50;;;;;;5064065;28;19924;-68
2022/10/03 09:35:18;;;;;;;;;;;20.10;59.60;;;;;;5069530;27;19931;-70
2022/10/03 09:37:57;;;;;;;;;;;20.20;59.80;;;;;;5070301;28;20386;-69
2022/10/03 09:40:38;;;;;;;;;;;20.00;59.60;;;;;;5068291;28;20701;-67
2022/10/03 09:51:20;;;;;;;;;;;20.10;60.70;;;;;;5079416;27;20441;-68
2022/10/03 09:57:01;;;;;;;;;;;20.20;60.80;;;;;;5084242;27;19921;-65
2022/10/03 10:02:32;;;;;;;;;;;20.10;60.40;;;;;;5081366;27;20520;-67
2022/10/03 10:21:53;;;;;;;;;;;20.20;59.80;;;;;;5072099;27;19950;-65
2022/10/03 10:27:27;;;;;;;;;;;20.30;59.70;;;;;;5074742;27;19921;-65
2022/10/03 10:30:12;;;;;;;;;;;20.30;59.70;;;;;;5054106;28;20041;-66
2022/10/03 10:35:29;;;;;;;;;;;20.30;59.50;;;;;;5082763;27;19916;-65
2022/10/03 10:40:56;;;;;;;;;;;20.30;59.40;;;;;;5063113;28;19917;-65
2022/10/03 10:46:25;;;;;;;;;;;20.30;59.40;;;;;;5107023;27;19920;-65
2022/10/03 10:49:11;;;;;;;;;;;20.30;59.50;;;;;;5139024;27;19934;-65
2022/10/03 10:51:56;;;;;;;;;;;20.30;59.30;;;;;;5107452;27;20396;-65
2022/10/03 10:54:41;;;;;;;;;;;20.40;59.40;;;;;;5111322;28;20017;-65
2022/10/03 10:57:28;;;;;;;;;;;20.30;59.50;;;;;;5104175;28;19924;-66
2022/10/03 11:00:04;;;;;;;;;;;20.30;59.50;;;;;;5139253;27;20447;-65
2022/10/03 11:05:45;;;;;;;;;;;20.30;59.50;;;;;;5089978;27;19920;-65
2022/10/03 11:08:31;;;;;;;;;;;20.40;59.50;;;;;;5071830;28;20365;-66
2022/10/03 11:11:03;;;;;;;;;;;20.30;59.50;;;;;;5056395;28;19924;-65
2022/10/03 11:16:34;;;;;;;;;;;20.30;59.60;;;;;;5067374;27;20080;-66
2022/10/03 11:19:16;;;;;;;;;;;20.40;59.70;;;;;;5052894;28;19927;-67
2022/10/03 11:22:03;;;;;;;;;;;20.40;59.70;;;;;;5048961;28;20313;-66
2022/10/03 11:24:48;;;;;;;;;;;20.40;59.90;;;;;;5065349;28;19935;-67
2022/10/03 11:32:54;;;;;;;;;;;20.50;60.10;;;;;;5080700;27;1866511;-66
2022/10/03 11:38:11;;;;;;;;;;;20.40;60.20;;;;;;5051592;28;19930;-66
2022/10/03 11:40:57;;;;;;;;;;;20.50;60.30;;;;;;5053645;28;19925;-66
2022/10/03 11:43:42;;;;;;;;;;;20.40;60.30;;;;;;5052013;28;19925;-66
2022/10/03 11:56:56;;;;;;;;;;;20.50;60.30;;;;;;5089053;27;1860339;-66
2022/10/03 12:02:29;;;;;;;;;;;20.50;60.40;;;;;;5077926;27;19924;-66
2022/10/03 12:04:58;;;;;;;;;;;20.50;60.30;;;;;;5074003;28;20055;-66
2022/10/03 12:10:34;;;;;;;;;;;20.50;60.60;;;;;;5073541;28;19927;-64
2022/10/03 12:13:03;;;;;;;;;;;20.50;60.20;;;;;;5071557;28;19927;-66
2022/10/03 12:15:33;;;;;;;;;;;20.50;60.30;;;;;;5074241;28;19928;-65
2022/10/03 12:18:03;;;;;;;;;;;20.50;60.30;;;;;;5076147;28;19950;-65
2022/10/03 12:20:36;;;;;;;;;;;20.50;60.20;;;;;;5068832;28;19928;-67
2022/10/03 12:23:22;;;;;;;;;;;20.50;60.60;;;;;;5072270;28;21106;-65
2022/10/03 12:25:48;;;;;;;;;;;20.50;60.60;;;;;;5072371;28;19977;-66
2022/10/03 12:28:19;;;;;;;;;;;20.50;61.10;;;;;;5071878;28;20343;-65
2022/10/03 12:30:47;;;;;;;;;;;20.50;61.50;;;;;;5067107;28;19924;-66
2022/10/03 12:33:21;;;;;;;;;;;20.50;61.60;;;;;;5065011;28;19935;-66
2022/10/03 12:38:34;;;;;;;;;;;20.60;61.90;;;;;;5072805;27;19926;-66
2022/10/03 12:46:31;;;;;;;;;;;20.60;62.50;;;;;;5085259;27;19920;-66
2022/10/03 12:49:02;;;;;;;;;;;20.60;62.30;;;;;;5071241;28;20468;-66
2022/10/03 12:51:48;;;;;;;;;;;20.60;62.20;;;;;;5067125;28;19955;-67
2022/10/03 12:57:14;;;;;;;;;;;20.60;62.20;;;;;;5070253;27;20143;-67
2022/10/03 12:59:43;;;;;;;;;;;20.60;62.40;;;;;;5060703;28;19925;-66
2022/10/03 13:02:29;;;;;;;;;;;20.60;62.30;;;;;;5064464;28;19932;-65
2022/10/03 13:10:47;;;;;;;;;;;20.60;61.20;;;;;;5067102;28;19916;-65
2022/10/03 13:13:22;;;;;;;;;;;20.60;61.10;;;;;;5054335;28;19925;-65
2022/10/03 13:16:08;;;;;;;;;;;20.60;60.90;;;;;;5055641;28;19932;-65
2022/10/03 13:18:41;;;;;;;;;;;20.60;60.80;;;;;;5057213;28;19955;-65
2022/10/03 13:23:51;;;;;;;;;;;20.60;60.60;;;;;;5060597;28;19924;-66
2022/10/03 13:29:19;;;;;;;;;;;20.50;60.30;;;;;;5053240;28;19917;-66
2022/10/03 13:31:54;;;;;;;;;;;20.50;60.50;;;;;;5051855;28;20043;-67
2022/10/03 13:34:22;;;;;;;;;;;20.50;60.60;;;;;;5060815;28;19957;-67
2022/10/03 13:37:08;;;;;;;;;;;20.50;61.40;;;;;;5054789;28;20436;-64
2022/10/03 13:39:51;;;;;;;;;;;20.50;60.60;;;;;;5042427;28;19994;-64
2022/10/03 13:45:02;;;;;;;;;;;20.50;60.30;;;;;;5086672;27;19922;-64
2022/10/03 13:47:47;;;;;;;;;;;20.50;60.40;;;;;;5063898;28;19924;-66
2022/10/03 13:53:14;;;;;;;;;;;20.60;60.80;;;;;;5072367;28;20237;-66
2022/10/03 13:55:43;;;;;;;;;;;20.60;60.80;;;;;;5077370;28;19960;-65
2022/10/03 14:01:12;;;;;;;;;;;20.60;60.50;;;;;;5058068;28;19920;-66
2022/10/03 14:03:57;;;;;;;;;;;20.60;60.20;;;;;;5055062;28;19928;-65
2022/10/03 14:06:30;;;;;;;;;;;20.60;60.10;;;;;;5052758;28;19952;-66
2022/10/03 14:09:15;;;;;;;;;;;20.50;59.80;;;;;;5047965;28;19916;-66
2022/10/03 14:17:09;;;;;;;;;;;20.50;59.80;;;;;;5067436;28;19912;-65
2022/10/03 14:19:42;;;;;;;;;;;20.50;59.80;;;;;;5046847;28;20378;-65
2022/10/03 14:24:58;;;;;;;;;;;20.50;59.80;;;;;;5080100;27;1862166;-66
2022/10/03 14:27:44;;;;;;;;;;;20.50;59.80;;;;;;5124836;27;20362;-68
2022/10/03 14:30:30;;;;;;;;;;;20.50;59.80;;;;;;5108431;27;19926;-66
2022/10/03 14:33:16;;;;;;;;;;;20.50;59.70;;;;;;5117825;27;19927;-67
2022/10/03 14:35:50;;;;;;;;;;;20.50;59.60;;;;;;5115010;27;19927;-70
2022/10/03 14:38:56;;;;;;;;;;;20.50;59.80;;;;;;5113053;27;19926;-67
2022/10/03 14:41:17;;;;;;;;;;;20.50;60.10;;;;;;5115562;27;19927;-67
2022/10/03 14:43:48;;;;;;;;;;;20.50;60.00;;;;;;5116384;27;19931;-67
2022/10/03 14:46:15;;;;;;;;;;;20.60;60.00;;;;;;5111434;27;19931;-69
2022/10/03 14:48:44;;;;;;;;;;;20.50;59.70;;;;;;5111648;27;19926;-68
2022/10/03 14:51:28;;;;;;;;;;;20.50;59.70;;;;;;5117614;27;19919;-68
2022/10/03 14:54:01;;;;;;;;;;;20.50;59.70;;;;;;5119842;27;19923;-68
2022/10/03 14:56:27;;;;;;;;;;;20.40;59.70;;;;;;5148798;27;19927;-68
2022/10/03 14:58:54;;;;;;;;;;;20.40;59.70;;;;;;5128030;27;19920;-68
2022/10/03 15:01:22;;;;;;;;;;;20.30;59.70;;;;;;5147447;27;20295;-68
2022/10/03 15:04:04;;;;;;;;;;;20.30;59.80;;;;;;5152117;27;20374;-68
2022/10/03 15:06:33;;;;;;;;;;;20.30;59.80;;;;;;5138210;27;19924;-66
2022/10/03 15:09:01;;;;;;;;;;;20.30;59.80;;;;;;5119562;27;19930;-66
2022/10/03 15:11:28;;;;;;;;;;;20.20;59.80;;;;;;5126424;27;20014;-66
2022/10/03 15:13:56;;;;;;;;;;;20.20;59.90;;;;;;5123584;27;19927;-66
2022/10/03 15:16:23;;;;;;;;;;;20.20;59.90;;;;;;5120094;27;19945;-66
2022/10/03 15:18:58;;;;;;;;;;;20.20;60.00;;;;;;5142555;27;20346;-66
2022/10/03 15:21:25;;;;;;;;;;;20.20;60.00;;;;;;5151531;27;19923;-66
2022/10/03 15:23:54;;;;;;;;;;;20.10;60.00;;;;;;5145895;27;19971;-66
2022/10/03 15:26:22;;;;;;;;;;;20.10;60.00;;;;;;5150070;27;19920;-66
2022/10/03 15:28:50;;;;;;;;;;;20.10;60.00;;;;;;5148860;27;19919;-66
2022/10/03 15:31:32;;;;;;;;;;;20.10;60.00;;;;;;5140685;27;19920;-66
2022/10/03 15:33:59;;;;;;;;;;;20.10;60.10;;;;;;5127766;28;20383;-66
2022/10/03 15:36:28;;;;;;;;;;;20.00;60.00;;;;;;5114152;28;19934;-66
2022/10/03 15:38:59;;;;;;;;;;;20.10;60.10;;;;;;5114671;28;19934;-66
2022/10/03 15:41:27;;;;;;;;;;;20.10;60.10;;;;;;5113911;28;20370;-66
2022/10/03 15:44:12;;;;;;;;;;;20.10;60.10;;;;;;5114452;28;19924;-66
2022/10/03 15:49:19;;;;;;;;;;;20.00;60.10;;;;;;5126965;27;1882725;-66
2022/10/03 15:51:46;;;;;;;;;;;20.00;60.10;;;;;;5174366;27;19918;-66
2022/10/03 15:54:14;;;;;;;;;;;20.00;60.10;;;;;;5174131;27;20005;-66
2022/10/03 15:56:42;;;;;;;;;;;20.00;60.10;;;;;;5166214;27;20334;-66
2022/10/03 15:59:13;;;;;;;;;;;20.00;60.20;;;;;;5163773;27;19978;-66
2022/10/03 16:01:42;;;;;;;;;;;20.00;60.20;;;;;;5187458;27;20330;-66
2022/10/03 16:04:28;;;;;;;;;;;19.90;60.10;;;;;;5172500;27;20002;-66
2022/10/03 16:09:45;;;;;;;;;;;19.90;60.20;;;;;;5109739;27;19912;-66
2022/10/03 16:12:27;;;;;;;;;;;19.90;60.20;;;;;;5084191;28;20364;-67
2022/10/03 16:14:58;;;;;;;;;;;20.00;60.30;;;;;;5088763;28;20344;-66
2022/10/03 16:20:20;;;;;;;;;;;19.80;60.20;;;;;;5110171;27;19912;-67
2022/10/03 16:22:49;;;;;;;;;;;19.80;60.30;;;;;;5108868;28;19920;-66
2022/10/03 16:25:18;;;;;;;;;;;19.80;60.30;;;;;;5109108;28;19958;-66
2022/10/03 16:27:50;;;;;;;;;;;19.80;60.20;;;;;;5095484;28;20539;-66
2022/10/03 16:30:20;;;;;;;;;;;19.80;60.30;;;;;;5085035;28;20373;-68
2022/10/03 16:35:35;;;;;;;;;;;19.90;61.40;;;;;;5087762;28;20419;-68
2022/10/03 16:38:03;;;;;;;;;;;19.90;61.40;;;;;;5076610;28;19981;-67
2022/10/03 16:40:29;;;;;;;;;;;19.90;61.60;;;;;;5093670;28;20312;-68
2022/10/03 16:42:57;;;;;;;;;;;20.00;61.80;;;;;;5078235;28;19969;-69
2022/10/03 16:45:32;;;;;;;;;;;20.00;61.80;;;;;;5095058;28;20288;-67
2022/10/03 16:50:48;;;;;;;;;;;20.00;61.90;;;;;;5071887;28;19920;-68
2022/10/03 16:53:15;;;;;;;;;;;20.10;61.80;;;;;;5069108;28;19968;-66
2022/10/03 16:55:49;;;;;;;;;;;20.10;62.00;;;;;;5064614;28;19921;-66
2022/10/03 17:01:00;;;;;;;;;;;20.10;61.60;;;;;;5110058;27;19912;-65
2022/10/03 17:03:29;;;;;;;;;;;20.10;61.50;;;;;;5109558;28;20478;-65
2022/10/03 17:05:58;;;;;;;;;;;20.10;61.40;;;;;;5108760;28;19920;-65
2022/10/03 17:08:26;;;;;;;;;;;20.00;61.30;;;;;;5108826;28;19920;-65
2022/10/03 17:10:53;;;;;;;;;;;20.00;61.30;;;;;;5109091;28;20383;-65
2022/10/03 17:13:22;;;;;;;;;;;20.00;61.20;;;;;;5105259;28;19935;-65
2022/10/03 17:15:51;;;;;;;;;;;20.00;61.20;;;;;;5105098;28;19920;-65
2022/10/03 17:18:20;;;;;;;;;;;20.00;61.30;;;;;;5108570;28;19924;-65
2022/10/03 17:20:48;;;;;;;;;;;20.00;61.40;;;;;;5107132;28;19924;-67
2022/10/03 17:23:20;;;;;;;;;;;20.00;61.40;;;;;;5109300;28;20287;-66
2022/10/03 17:25:48;;;;;;;;;;;20.00;61.40;;;;;;5109221;28;20410;-66
2022/10/03 17:28:17;;;;;;;;;;;19.90;61.30;;;;;;5108535;28;19927;-70
2022/10/03 17:30:45;;;;;;;;;;;20.00;61.50;;;;;;5108193;28;20412;-68
2022/10/03 17:33:15;;;;;;;;;;;20.00;61.60;;;;;;5107498;28;19920;-67
2022/10/03 17:35:49;;;;;;;;;;;20.00;61.80;;;;;;5108050;28;19924;-69
2022/10/03 17:38:35;;;;;;;;;;;20.00;61.90;;;;;;5108173;28;19920;-69
2022/10/03 17:41:13;;;;;;;;;;;20.10;62.00;;;;;;5105273;28;19924;-75
2022/10/03 17:46:38;;;;;;;;;;;20.00;61.90;;;;;;5088634;28;19916;-67
2022/10/03 17:51:47;;;;;;;;;;;20.00;61.90;;;;;;5087808;28;19917;-67
2022/10/03 17:54:16;;;;;;;;;;;20.00;61.90;;;;;;5089083;28;19928;-67
2022/10/03 17:56:44;;;;;;;;;;;19.90;62.00;;;;;;5088357;28;19920;-67
2022/10/03 17:59:17;;;;;;;;;;;19.90;62.10;;;;;;5087494;28;19920;-67
2022/10/03 18:01:46;;;;;;;;;;;19.90;62.30;;;;;;5086777;28;19924;-67
2022/10/03 18:04:16;;;;;;;;;;;19.90;62.50;;;;;;5087462;28;19964;-67
2022/10/03 18:06:44;;;;;;;;;;;19.90;62.90;;;;;;5087643;28;20280;-67
2022/10/03 18:09:21;;;;;;;;;;;19.80;62.80;;;;;;5087088;28;19946;-67
2022/10/03 18:11:48;;;;;;;;;;;19.80;63.20;;;;;;5091253;28;19935;-67
2022/10/03 18:14:18;;;;;;;;;;;19.80;63.50;;;;;;5086782;28;19920;-67
2022/10/03 18:16:53;;;;;;;;;;;19.80;63.60;;;;;;5088890;28;19935;-67
2022/10/03 18:25:00;;;;;;;;;;;19.70;64.10;;;;;;5121419;27;20314;-66
2022/10/03 18:27:50;;;;;;;;;;;19.80;64.10;;;;;;5115805;28;19923;-66
2022/10/03 18:30:19;;;;;;;;;;;19.70;64.20;;;;;;5118785;28;19923;-66
2022/10/03 18:32:45;;;;;;;;;;;19.70;64.30;;;;;;5115234;28;19923;-66
2022/10/03 18:37:54;;;;;;;;;;;19.70;64.40;;;;;;5128175;27;1850645;-66
2022/10/03 18:43:01;;;;;;;;;;;19.60;64.50;;;;;;5088826;28;20420;-66
2022/10/03 18:45:29;;;;;;;;;;;19.60;64.50;;;;;;5079569;28;20349;-66
2022/10/03 18:48:00;;;;;;;;;;;19.60;64.50;;;;;;5078271;28;20016;-66
2022/10/03 18:56:01;;;;;;;;;;;19.60;64.50;;;;;;5118647;27;1855635;-66
2022/10/03 18:58:30;;;;;;;;;;;19.60;64.50;;;;;;5159851;27;19961;-66
2022/10/03 19:03:57;;;;;;;;;;;19.60;64.50;;;;;;5089418;28;19934;-66
2022/10/03 19:06:25;;;;;;;;;;;19.50;64.50;;;;;;5088307;28;20175;-66
2022/10/03 19:11:34;;;;;;;;;;;19.50;64.40;;;;;;5089526;28;19956;-66
2022/10/03 19:14:05;;;;;;;;;;;19.50;64.40;;;;;;5087964;28;19920;-67
2022/10/03 19:16:52;;;;;;;;;;;19.50;64.40;;;;;;5087453;28;19920;-66
2022/10/03 19:19:40;;;;;;;;;;;19.50;64.40;;;;;;5087282;28;19964;-66
2022/10/03 19:22:07;;;;;;;;;;;19.50;64.40;;;;;;5085260;28;20524;-66
2022/10/03 19:24:33;;;;;;;;;;;19.50;64.40;;;;;;5088391;28;19928;-66
2022/10/03 19:27:00;;;;;;;;;;;19.50;64.40;;;;;;5087877;28;19942;-66
2022/10/03 19:29:27;;;;;;;;;;;19.40;64.30;;;;;;5085267;28;19924;-66
2022/10/03 19:34:36;;;;;;;;;;;19.40;64.30;;;;;;5115989;27;1857137;-66
2022/10/03 19:37:05;;;;;;;;;;;19.40;64.30;;;;;;5178637;27;20161;-66
2022/10/03 19:39:31;;;;;;;;;;;19.40;64.20;;;;;;5179066;27;19952;-66
2022/10/03 19:42:15;;;;;;;;;;;19.40;64.20;;;;;;5153217;27;20338;-66
2022/10/03 19:44:40;;;;;;;;;;;19.40;64.20;;;;;;5173392;27;19925;-67
2022/10/03 19:50:02;;;;;;;;;;;19.40;64.10;;;;;;5089405;28;19919;-67
2022/10/03 19:52:30;;;;;;;;;;;19.40;64.20;;;;;;5086441;28;20398;-66
2022/10/03 19:55:12;;;;;;;;;;;19.40;64.10;;;;;;5089225;28;19928;-66
2022/10/03 19:57:41;;;;;;;;;;;19.40;64.10;;;;;;5088079;28;19963;-66
2022/10/03 20:00:19;;;;;;;;;;;19.40;64.10;;;;;;5087940;28;20011;-67
2022/10/03 20:02:51;;;;;;;;;;;19.40;64.10;;;;;;5090244;28;20125;-66
2022/10/03 20:05:18;;;;;;;;;;;19.40;64.10;;;;;;5082715;28;19924;-66
2022/10/03 20:13:07;;;;;;;;;;;19.40;64.10;;;;;;5119669;27;20367;-66
2022/10/03 20:15:37;;;;;;;;;;;19.40;64.00;;;;;;5118236;28;19920;-66
2022/10/03 20:18:03;;;;;;;;;;;19.40;64.10;;;;;;5111433;28;19970;-65
2022/10/03 20:20:30;;;;;;;;;;;19.40;64.10;;;;;;5107270;28;19934;-65
2022/10/03 20:23:00;;;;;;;;;;;19.30;63.90;;;;;;5108882;28;19920;-65
2022/10/03 20:28:06;;;;;;;;;;;19.40;64.00;;;;;;5135134;27;1878921;-65
2022/10/03 20:30:44;;;;;;;;;;;19.40;64.10;;;;;;5172707;27;19944;-66
2022/10/03 20:33:15;;;;;;;;;;;19.40;64.10;;;;;;5193220;27;19918;-65
2022/10/03 20:41:07;;;;;;;;;;;19.30;63.90;;;;;;5109012;27;19919;-66
2022/10/03 20:46:15;;;;;;;;;;;19.30;63.90;;;;;;5089340;28;19913;-66
2022/10/03 20:48:47;;;;;;;;;;;19.30;64.00;;;;;;5086529;28;19960;-66
2022/10/03 20:51:21;;;;;;;;;;;19.30;64.00;;;;;;5088399;28;19926;-66
2022/10/03 20:53:51;;;;;;;;;;;19.30;64.00;;;;;;5088741;28;19921;-66
2022/10/03 20:56:19;;;;;;;;;;;19.20;63.90;;;;;;5088416;28;19959;-66
2022/10/03 20:58:48;;;;;;;;;;;19.20;63.80;;;;;;5089854;28;20342;-66
2022/10/03 21:01:15;;;;;;;;;;;19.20;63.90;;;;;;5088711;28;20128;-66
2022/10/03 21:04:00;;;;;;;;;;;19.20;63.90;;;;;;5088651;28;20272;-66
2022/10/03 21:06:29;;;;;;;;;;;19.20;63.90;;;;;;5088100;28;19931;-66
2022/10/03 21:08:55;;;;;;;;;;;19.20;63.80;;;;;;5088472;28;19931;-67
2022/10/03 21:11:23;;;;;;;;;;;19.20;63.90;;;;;;5088137;28;19928;-66
2022/10/03 21:16:32;;;;;;;;;;;19.20;63.80;;;;;;5110192;27;19934;-66
2022/10/03 21:19:00;;;;;;;;;;;19.20;63.80;;;;;;5108925;28;20364;-66
2022/10/03 21:21:31;;;;;;;;;;;19.20;63.80;;;;;;5110322;28;20345;-66
2022/10/03 21:24:09;;;;;;;;;;;19.20;63.80;;;;;;5092237;28;19924;-66
2022/10/03 21:26:44;;;;;;;;;;;19.10;63.80;;;;;;5108685;28;19924;-66
2022/10/03 21:29:26;;;;;;;;;;;19.10;63.80;;;;;;5109031;28;20364;-66
2022/10/03 21:32:13;;;;;;;;;;;19.10;63.80;;;;;;5108836;28;19973;-66
2022/10/03 21:34:58;;;;;;;;;;;19.10;63.80;;;;;;5108583;28;20414;-66
2022/10/03 21:40:08;;;;;;;;;;;19.10;63.80;;;;;;5089862;28;19919;-66
2022/10/03 21:45:27;;;;;;;;;;;19.00;63.70;;;;;;5089639;28;19913;-66
2022/10/03 21:47:57;;;;;;;;;;;19.00;63.60;;;;;;5086858;28;19920;-66
2022/10/03 21:50:26;;;;;;;;;;;19.00;63.70;;;;;;5087065;28;20030;-69
2022/10/03 21:52:57;;;;;;;;;;;19.00;63.70;;;;;;5086737;28;19920;-66
2022/10/03 21:55:36;;;;;;;;;;;19.00;63.60;;;;;;5086743;28;19927;-66
2022/10/03 21:58:09;;;;;;;;;;;19.00;63.70;;;;;;5086727;28;20414;-66
2022/10/03 22:00:54;;;;;;;;;;;19.00;63.60;;;;;;5088272;28;19920;-66
2022/10/03 22:03:23;;;;;;;;;;;19.00;63.60;;;;;;5089319;28;20273;-66
2022/10/03 22:08:34;;;;;;;;;;;18.90;63.50;;;;;;5089867;28;19939;-66
2022/10/03 22:13:43;;;;;;;;;;;19.00;63.50;;;;;;5089909;28;19912;-66
2022/10/03 22:19:08;;;;;;;;;;;18.90;63.50;;;;;;5127714;27;1860454;-66
2022/10/03 22:21:37;;;;;;;;;;;18.90;63.40;;;;;;5174281;27;19944;-66
2022/10/03 22:24:08;;;;;;;;;;;18.90;63.40;;;;;;5174668;27;20336;-66
2022/10/03 22:29:34;;;;;;;;;;;18.90;63.40;;;;;;5089905;28;19913;-66